Airfield :
LOGIN :

Register | Disclaimer

   EN    FR    IT 

 










Legend :    VFR   Marginal VFR   IFR   Intensive IFR   Very Intensive IFR
Visi :
Ceiling :
>= 8 km
>= 3000ft
5 to 8 km
1000 to 3000 ft
1500m to 5 km
500 to 1000 ft
800 to 1500m
200 to 500 ft
< 800m
< 200 ft
Symbols :   Thunderstorms  Fog  Heavy snow  Heavy precipitations  Wind > 20 kt
SIGMETs :     Misc.  Thunderstorms  Icing  Turbulence  Mountain Waves  Volcanic Ashes







- Airport Elevation : 14 ft
- IATA code : BRE


EDDW - Bremen Neuenland

CURRENT METAR :
  • 250550Z 30009KT 9999 SCT008 BKN011 14/13 Q1021 NOSIG

EXPIRED METARs :
  • 250520Z 33010KT 9999 BKN011 15/12 Q1021 NOSIG
  • 250450Z 29007KT 9999 SCT008 BKN010 14/13 Q1021 NOSIG
  • 250420Z 30006KT 8000 -DZ FEW005 BKN007 14/13 Q1021 BECMG BKN012
  • 250350Z 29005KT 8000 -DZ SCT006 BKN009 14/13 Q1020 BECMG BKN012
  • 250320Z 29006KT 9999 BKN008 BKN012 13/13 Q1020

TAF TAF EDDW
Valid from the 25 at 06:00 until the 26 at 06:00 UTC


250500Z 2506/2606 29006KT 9999 BKN012
BECMG 2506/2509 31011KT BKN020
BECMG 2520/2522 29005KT
BECMG 2522/2601 BKN010
TEMPO 2600/2606 BKN008
No reported NOTAMs for that airfield.



MET'MAP, your aeronautical weather chart ! - Copyright ORBIFLY December 2007 - Disclaimer

ORBIFLY MET'MAP TEAM :

Programming & Development : Alexandra Zaïnal
Concept & Development : Baudouin d'Aumeries
Co-Development & Prog : Marc-Olivier Méhu
Technical & hardware support : Manuel Goepfert

Contact : metmap@orbifly.com




SOURCES & CREDITS :

   NOAA